NCAR-RAP Real-Time Weather Data

Output produced by METARs form (17 January 2018  22:27 UTC)
found at http://weather.rap.ucar.edu/surface/
 
Conditions at: KOBE observed 17 January 2018  22:15 UTC
Temperature: 20.0°C (68°F)
Dewpoint: 8.0°C (46°F) [RH = 46%]
Pressure (altimeter): 30.17 inches Hg (1021.8 mb)
Winds: from the WNW (300 degrees) at 9 MPH (8 knots; 4.2 m/s)
Visibility: 10 or more miles (16+ km)
Ceiling: at least 12,000 feet AGL
Clouds: sky clear below 12,000 feet AGL
Present Weather: automated observation with no human augmentation;
there may or may not be significant weather present at this time
KOBE 172215Z AUTO 30008KT 10SM CLR 20/08 A3017 RMK AO2

Conditions at: KOBE observed 17 January 2018  21:55 UTC
Temperature: 21.0°C (70°F)
Dewpoint: 8.0°C (46°F) [RH = 43%]
Pressure (altimeter): 30.16 inches Hg (1021.4 mb)
Winds: from the NW (310 degrees) at 9 MPH (8 knots; 4.2 m/s)
Visibility: 10 or more miles (16+ km)
Ceiling: at least 12,000 feet AGL
Clouds: sky clear below 12,000 feet AGL
Present Weather: automated observation with no human augmentation;
there may or may not be significant weather present at this time
KOBE 172155Z AUTO 31008KT 10SM CLR 21/08 A3016 RMK AO2

Conditions at: KOBE observed 17 January 2018  21:35 UTC
Temperature: 21.0°C (70°F)
Dewpoint: 7.0°C (45°F) [RH = 40%]
Pressure (altimeter): 30.16 inches Hg (1021.4 mb)
Winds: from the NW (310 degrees) at 10 MPH (9 knots; 4.7 m/s)
gusting to 16 MPH (14 knots; 7.3 m/s)
Visibility: 10 or more miles (16+ km)
Ceiling: at least 12,000 feet AGL
Clouds: sky clear below 12,000 feet AGL
Present Weather: automated observation with no human augmentation;
there may or may not be significant weather present at this time
KOBE 172135Z AUTO 31009G14KT 10SM CLR 21/07 A3016 RMK AO2

Conditions at: KOBE observed 17 January 2018  21:15 UTC
Temperature: 22.0°C (72°F)
Dewpoint: 8.0°C (46°F) [RH = 41%]
Pressure (altimeter): 30.16 inches Hg (1021.4 mb)
Winds: from the WNW (300 degrees) at 9 MPH (8 knots; 4.2 m/s)
Visibility: 10 or more miles (16+ km)
Ceiling: at least 12,000 feet AGL
Clouds: sky clear below 12,000 feet AGL
Present Weather: automated observation with no human augmentation;
there may or may not be significant weather present at this time
KOBE 172115Z AUTO 30008KT 10SM CLR 22/08 A3016 RMK AO2

Conditions at: KOBE observed 17 January 2018  20:55 UTC
Temperature: 22.0°C (72°F)
Dewpoint: 8.0°C (46°F) [RH = 41%]
Pressure (altimeter): 30.16 inches Hg (1021.4 mb)
Winds: from the NW (310 degrees) at 8 MPH (7 knots; 3.6 m/s)
Visibility: 10 or more miles (16+ km)
Ceiling: at least 12,000 feet AGL
Clouds: sky clear below 12,000 feet AGL
Present Weather: automated observation with no human augmentation;
there may or may not be significant weather present at this time
KOBE 172055Z AUTO 31007KT 10SM CLR 22/08 A3016 RMK AO2

Conditions at: KOBE observed 17 January 2018  20:35 UTC
Temperature: 22.0°C (72°F)
Dewpoint: 8.0°C (46°F) [RH = 41%]
Pressure (altimeter): 30.16 inches Hg (1021.4 mb)
Winds: from the NW (310 degrees) at 9 MPH (8 knots; 4.2 m/s)
gusting to 17 MPH (15 knots; 7.8 m/s)
Visibility: 10 or more miles (16+ km)
Ceiling: at least 12,000 feet AGL
Clouds: sky clear below 12,000 feet AGL
Present Weather: automated observation with no human augmentation;
there may or may not be significant weather present at this time
KOBE 172035Z AUTO 31008G15KT 275V335 10SM CLR 22/08 A3016 RMK AO2

Conditions at: KOBE observed 17 January 2018  20:15 UTC
Temperature: 22.0°C (72°F)
Dewpoint: 7.0°C (45°F) [RH = 38%]
Pressure (altimeter): 30.16 inches Hg (1021.4 mb)
Winds: from the NW (320 degrees) at 9 MPH (8 knots; 4.2 m/s)
Visibility: 10 or more miles (16+ km)
Ceiling: at least 12,000 feet AGL
Clouds: sky clear below 12,000 feet AGL
Present Weather: automated observation with no human augmentation;
there may or may not be significant weather present at this time
KOBE 172015Z AUTO 32008KT 10SM CLR 22/07 A3016 RMK AO2

Conditions at: KOBE observed 17 January 2018  19:55 UTC
Temperature: 22.0°C (72°F)
Dewpoint: 7.0°C (45°F) [RH = 38%]
Pressure (altimeter): 30.15 inches Hg (1021.1 mb)
Winds: from the NW (320 degrees) at 10 MPH (9 knots; 4.7 m/s)
Visibility: 10 or more miles (16+ km)
Ceiling: at least 12,000 feet AGL
Clouds: sky clear below 12,000 feet AGL
Present Weather: automated observation with no human augmentation;
there may or may not be significant weather present at this time
KOBE 171955Z AUTO 32009KT 10SM CLR 22/07 A3015 RMK AO2

Conditions at: KOBE observed 17 January 2018  19:40 UTC
Temperature: 22.0°C (72°F)
Dewpoint: 6.0°C (43°F) [RH = 35%]
Pressure (altimeter): 30.16 inches Hg (1021.4 mb)
Winds: from the NW (320 degrees) at 7 MPH (6 knots; 3.1 m/s)
gusting to 16 MPH (14 knots; 7.3 m/s)
Visibility: 10 or more miles (16+ km)
Ceiling: at least 12,000 feet AGL
Clouds: sky clear below 12,000 feet AGL
Present Weather: automated observation with no human augmentation;
there may or may not be significant weather present at this time
KOBE 171940Z AUTO 32006G14KT 10SM CLR 22/06 A3016 RMK AO2

Conditions at: KOBE observed 17 January 2018  19:15 UTC
Temperature: 22.0°C (72°F)
Dewpoint: 6.0°C (43°F) [RH = 35%]
Pressure (altimeter): 30.16 inches Hg (1021.4 mb)
Winds: from the NNW (340 degrees) at 12 MPH (10 knots; 5.2 m/s)
Visibility: 10 or more miles (16+ km)
Ceiling: at least 12,000 feet AGL
Clouds: sky clear below 12,000 feet AGL
Present Weather: automated observation with no human augmentation;
there may or may not be significant weather present at this time
KOBE 171915Z AUTO 34010KT 10SM CLR 22/06 A3016 RMK AO2

Conditions at: KOBE observed 17 January 2018  18:55 UTC
Temperature: 22.0°C (72°F)
Dewpoint: 7.0°C (45°F) [RH = 38%]
Pressure (altimeter): 30.17 inches Hg (1021.8 mb)
Winds: from the NNW (330 degrees) at 8 MPH (7 knots; 3.6 m/s)
Visibility: 10 or more miles (16+ km)
Ceiling: at least 12,000 feet AGL
Clouds: sky clear below 12,000 feet AGL
Present Weather: automated observation with no human augmentation;
there may or may not be significant weather present at this time
KOBE 171855Z AUTO 33007KT 10SM CLR 22/07 A3017 RMK AO2

Conditions at: KOBE observed 17 January 2018  18:35 UTC
Temperature: 22.0°C (72°F)
Dewpoint: 7.0°C (45°F) [RH = 38%]
Pressure (altimeter): 30.19 inches Hg (1022.4 mb)
Winds: from the NW (310 degrees) at 10 MPH (9 knots; 4.7 m/s)
gusting to 16 MPH (14 knots; 7.3 m/s)
Visibility: 10 or more miles (16+ km)
Ceiling: at least 12,000 feet AGL
Clouds: sky clear below 12,000 feet AGL
Present Weather: automated observation with no human augmentation;
there may or may not be significant weather present at this time
KOBE 171835Z AUTO 31009G14KT 10SM CLR 22/07 A3019 RMK AO2

Conditions at: KOBE observed 17 January 2018  18:15 UTC
Temperature: 22.0°C (72°F)
Dewpoint: 8.0°C (46°F) [RH = 41%]
Pressure (altimeter): 30.20 inches Hg (1022.8 mb)
Winds: from the NNW (340 degrees) at 10 MPH (9 knots; 4.7 m/s)
Visibility: 10 or more miles (16+ km)
Ceiling: at least 12,000 feet AGL
Clouds: sky clear below 12,000 feet AGL
Present Weather: automated observation with no human augmentation;
there may or may not be significant weather present at this time
KOBE 171815Z AUTO 34009KT 10SM CLR 22/08 A3020 RMK AO2

Conditions at: KOBE observed 17 January 2018  17:55 UTC
Temperature: 22.0°C (72°F)
Dewpoint: 8.0°C (46°F) [RH = 41%]
Pressure (altimeter): 30.21 inches Hg (1023.1 mb)
Winds: from the NW (320 degrees) at 9 MPH (8 knots; 4.2 m/s)
Visibility: 10 or more miles (16+ km)
Ceiling: at least 12,000 feet AGL
Clouds: sky clear below 12,000 feet AGL
Present Weather: automated observation with no human augmentation;
there may or may not be significant weather present at this time
KOBE 171755Z AUTO 32008KT 10SM CLR 22/08 A3021 RMK AO2

Conditions at: KOBE observed 17 January 2018  17:35 UTC
Temperature: 21.0°C (70°F)
Dewpoint: 10.0°C (50°F) [RH = 49%]
Pressure (altimeter): 30.22 inches Hg (1023.5 mb)
Winds: from the NW (320 degrees) at 8 MPH (7 knots; 3.6 m/s)
Visibility: 10 or more miles (16+ km)
Ceiling: at least 12,000 feet AGL
Clouds: sky clear below 12,000 feet AGL
Present Weather: automated observation with no human augmentation;
there may or may not be significant weather present at this time
KOBE 171735Z AUTO 32007KT 10SM CLR 21/10 A3022 RMK AO2

Conditions at: KOBE observed 17 January 2018  17:15 UTC
Temperature: 21.0°C (70°F)
Dewpoint: 9.0°C (48°F) [RH = 46%]
Pressure (altimeter): 30.23 inches Hg (1023.8 mb)
Winds: from the NW (310 degrees) at 8 MPH (7 knots; 3.6 m/s)
Visibility: 10 or more miles (16+ km)
Ceiling: at least 12,000 feet AGL
Clouds: sky clear below 12,000 feet AGL
Present Weather: automated observation with no human augmentation;
there may or may not be significant weather present at this time
KOBE 171715Z AUTO 31007KT 10SM CLR 21/09 A3023 RMK AO2

Conditions at: KOBE observed 17 January 2018  16:55 UTC
Temperature: 21.0°C (70°F)
Dewpoint: 10.0°C (50°F) [RH = 49%]
Pressure (altimeter): 30.23 inches Hg (1023.8 mb)
Winds: from the NW (310 degrees) at 6 MPH (5 knots; 2.6 m/s)
Visibility: 10 or more miles (16+ km)
Ceiling: at least 12,000 feet AGL
Clouds: sky clear below 12,000 feet AGL
Present Weather: automated observation with no human augmentation;
there may or may not be significant weather present at this time
KOBE 171655Z AUTO 31005KT 10SM CLR 21/10 A3023 RMK AO2

Conditions at: KOBE observed 17 January 2018  16:35 UTC
Temperature: 20.0°C (68°F)
Dewpoint: 11.0°C (52°F) [RH = 56%]
Pressure (altimeter): 30.24 inches Hg (1024.1 mb)
Winds: from the NNW (340 degrees) at 8 MPH (7 knots; 3.6 m/s)
Visibility: 10 or more miles (16+ km)
Ceiling: at least 12,000 feet AGL
Clouds: sky clear below 12,000 feet AGL
Present Weather: automated observation with no human augmentation;
there may or may not be significant weather present at this time
KOBE 171635Z AUTO 34007KT 10SM CLR 20/11 A3024 RMK AO2

Conditions at: KOBE observed 17 January 2018  16:15 UTC
Temperature: 20.0°C (68°F)
Dewpoint: 11.0°C (52°F) [RH = 56%]
Pressure (altimeter): 30.25 inches Hg (1024.5 mb)
Winds: from the N (350 degrees) at 7 MPH (6 knots; 3.1 m/s)
Visibility: 10 or more miles (16+ km)
Ceiling: at least 12,000 feet AGL
Clouds: sky clear below 12,000 feet AGL
Present Weather: automated observation with no human augmentation;
there may or may not be significant weather present at this time
KOBE 171615Z AUTO 35006KT 10SM CLR 20/11 A3025 RMK AO2

Conditions at: KOBE observed 17 January 2018  15:55 UTC
Temperature: 18.0°C (64°F)
Dewpoint: 11.0°C (52°F) [RH = 64%]
Pressure (altimeter): 30.26 inches Hg (1024.8 mb)
Winds: from the N (350 degrees) at 7 MPH (6 knots; 3.1 m/s)
Visibility: 10 or more miles (16+ km)
Ceiling: at least 12,000 feet AGL
Clouds: sky clear below 12,000 feet AGL
Present Weather: automated observation with no human augmentation;
there may or may not be significant weather present at this time
KOBE 171555Z AUTO 35006KT 10SM CLR 18/11 A3026 RMK AO2

Conditions at: KOBE observed 17 January 2018  15:35 UTC
Temperature: 17.0°C (63°F)
Dewpoint: 12.0°C (54°F) [RH = 72%]
Pressure (altimeter): 30.26 inches Hg (1024.8 mb)
Winds: from the NW (320 degrees) at 6 MPH (5 knots; 2.6 m/s)
Visibility: 10 or more miles (16+ km)
Ceiling: at least 12,000 feet AGL
Clouds: sky clear below 12,000 feet AGL
Present Weather: automated observation with no human augmentation;
there may or may not be significant weather present at this time
KOBE 171535Z AUTO 32005KT 10SM CLR 17/12 A3026 RMK AO2

Conditions at: KOBE observed 17 January 2018  15:15 UTC
Temperature: 16.0°C (61°F)
Dewpoint: 11.0°C (52°F) [RH = 72%]
Pressure (altimeter): 30.27 inches Hg (1025.1 mb)
Winds: from the NNW (340 degrees) at 6 MPH (5 knots; 2.6 m/s)
Visibility: 10 or more miles (16+ km)
Ceiling: at least 12,000 feet AGL
Clouds: sky clear below 12,000 feet AGL
Present Weather: automated observation with no human augmentation;
there may or may not be significant weather present at this time
KOBE 171515Z AUTO 34005KT 10SM CLR 16/11 A3027 RMK AO2

Conditions at: KOBE observed 17 January 2018  14:55 UTC
Temperature: 15.0°C (59°F)
Dewpoint: 12.0°C (54°F) [RH = 82%]
Pressure (altimeter): 30.27 inches Hg (1025.1 mb)
Winds: from the NNW (340 degrees) at 3 MPH (3 knots; 1.6 m/s)
Visibility: 10 or more miles (16+ km)
Ceiling: at least 12,000 feet AGL
Clouds: sky clear below 12,000 feet AGL
Present Weather: automated observation with no human augmentation;
there may or may not be significant weather present at this time
KOBE 171455Z AUTO 34003KT 10SM CLR 15/12 A3027 RMK AO2

Conditions at: KOBE observed 17 January 2018  14:35 UTC
Temperature: 14.0°C (57°F)
Dewpoint: 11.0°C (52°F) [RH = 82%]
Pressure (altimeter): 30.27 inches Hg (1025.1 mb)
Winds: from the N (360 degrees) at 5 MPH (4 knots; 2.1 m/s)
Visibility: 10 or more miles (16+ km)
Ceiling: at least 12,000 feet AGL
Clouds: sky clear below 12,000 feet AGL
Present Weather: automated observation with no human augmentation;
there may or may not be significant weather present at this time
KOBE 171435Z AUTO 36004KT 10SM CLR 14/11 A3027 RMK AO2

Conditions at: KOBE observed 17 January 2018  14:15 UTC
Temperature: 12.0°C (54°F)
Dewpoint: 11.0°C (52°F) [RH = 94%]
Pressure (altimeter): 30.26 inches Hg (1024.8 mb)
Winds: from the N (360 degrees) at 5 MPH (4 knots; 2.1 m/s)
Visibility: 10 or more miles (16+ km)
Ceiling: at least 12,000 feet AGL
Clouds: sky clear below 12,000 feet AGL
Present Weather: automated observation with no human augmentation;
there may or may not be significant weather present at this time
KOBE 171415Z AUTO 36004KT 10SM CLR 12/11 A3026 RMK AO2

Conditions at: KOBE observed 17 January 2018  13:55 UTC
Temperature: 11.0°C (52°F)
Dewpoint: 10.0°C (50°F) [RH = 94%]
Pressure (altimeter): 30.26 inches Hg (1024.8 mb)
Winds: from the N (350 degrees) at 5 MPH (4 knots; 2.1 m/s)
Visibility: 10 or more miles (16+ km)
Ceiling: at least 12,000 feet AGL
Clouds: sky clear below 12,000 feet AGL
Present Weather: automated observation with no human augmentation;
there may or may not be significant weather present at this time
KOBE 171355Z AUTO 35004KT 10SM CLR 11/10 A3026 RMK AO2

Conditions at: KOBE observed 17 January 2018  13:35 UTC
Temperature: 10.0°C (50°F)
Dewpoint: 10.0°C (50°F) [RH = 100%]
Pressure (altimeter): 30.26 inches Hg (1024.8 mb)
Winds: calm
Visibility: 10 or more miles (16+ km)
Ceiling: at least 12,000 feet AGL
Clouds: sky clear below 12,000 feet AGL
Present Weather: automated observation with no human augmentation;
there may or may not be significant weather present at this time
KOBE 171335Z AUTO 00000KT 10SM CLR 10/10 A3026 RMK AO2

Conditions at: KOBE observed 17 January 2018  13:15 UTC
Temperature: 8.0°C (46°F)
Dewpoint: 8.0°C (46°F) [RH = 100%]
Pressure (altimeter): 30.26 inches Hg (1024.8 mb)
Winds: calm
Visibility: 10 or more miles (16+ km)
Ceiling: at least 12,000 feet AGL
Clouds: sky clear below 12,000 feet AGL
Present Weather: automated observation with no human augmentation;
there may or may not be significant weather present at this time
KOBE 171315Z AUTO 00000KT 10SM CLR 08/08 A3026 RMK AO2

Conditions at: KOBE observed 17 January 2018  12:55 UTC
Temperature: 8.0°C (46°F)
Dewpoint: 8.0°C (46°F) [RH = 100%]
Pressure (altimeter): 30.25 inches Hg (1024.5 mb)
Winds: from the NNW (340 degrees) at 5 MPH (4 knots; 2.1 m/s)
Visibility: 10 or more miles (16+ km)
Ceiling: at least 12,000 feet AGL
Clouds: sky clear below 12,000 feet AGL
Present Weather: automated observation with no human augmentation;
there may or may not be significant weather present at this time
KOBE 171255Z AUTO 34004KT 10SM CLR 08/08 A3025 RMK AO2

Conditions at: KOBE observed 17 January 2018  12:35 UTC
Temperature: 8.0°C (46°F)
Dewpoint: 8.0°C (46°F) [RH = 100%]
Pressure (altimeter): 30.24 inches Hg (1024.1 mb)
Winds: from the NNW (340 degrees) at 6 MPH (5 knots; 2.6 m/s)
Visibility: 7 miles (11 km)
Ceiling: at least 12,000 feet AGL
Clouds: sky clear below 12,000 feet AGL
Present Weather: automated observation with no human augmentation;
there may or may not be significant weather present at this time
KOBE 171235Z AUTO 34005KT 7SM CLR 08/08 A3024 RMK AO2

Conditions at: KOBE observed 17 January 2018  12:15 UTC
Temperature: 8.0°C (46°F)
Dewpoint: 8.0°C (46°F) [RH = 100%]
Pressure (altimeter): 30.24 inches Hg (1024.1 mb)
Winds: from the NNW (330 degrees) at 3 MPH (3 knots; 1.6 m/s)
Visibility: 7 miles (11 km)
Ceiling: at least 12,000 feet AGL
Clouds: sky clear below 12,000 feet AGL
Present Weather: automated observation with no human augmentation;
there may or may not be significant weather present at this time
KOBE 171215Z AUTO 33003KT 7SM CLR 08/08 A3024 RMK AO2

Conditions at: KOBE observed 17 January 2018  11:55 UTC
Temperature: 8.0°C (46°F)
Dewpoint: 8.0°C (46°F) [RH = 100%]
Pressure (altimeter): 30.23 inches Hg (1023.8 mb)
Winds: calm
Visibility: 7 miles (11 km)
Ceiling: at least 12,000 feet AGL
Clouds: sky clear below 12,000 feet AGL
Present Weather: automated observation with no human augmentation;
there may or may not be significant weather present at this time
KOBE 171155Z AUTO 00000KT 7SM CLR 08/08 A3023 RMK AO2

Conditions at: KOBE observed 17 January 2018  11:35 UTC
Temperature: 8.0°C (46°F)
Dewpoint: 7.0°C (45°F) [RH = 93%]
Pressure (altimeter): 30.23 inches Hg (1023.8 mb)
Winds: from the NNW (330 degrees) at 3 MPH (3 knots; 1.6 m/s)
Visibility: 10 or more miles (16+ km)
Ceiling: at least 12,000 feet AGL
Clouds: sky clear below 12,000 feet AGL
Present Weather: automated observation with no human augmentation;
there may or may not be significant weather present at this time
KOBE 171135Z AUTO 33003KT 10SM CLR 08/07 A3023 RMK AO2

Conditions at: KOBE observed 17 January 2018  11:15 UTC
Temperature: 8.0°C (46°F)
Dewpoint: 7.0°C (45°F) [RH = 93%]
Pressure (altimeter): 30.22 inches Hg (1023.5 mb)
Winds: calm
Visibility: 7 miles (11 km)
Ceiling: at least 12,000 feet AGL
Clouds: sky clear below 12,000 feet AGL
Present Weather: automated observation with no human augmentation;
there may or may not be significant weather present at this time
KOBE 171115Z AUTO 00000KT 7SM CLR 08/07 A3022 RMK AO2

Conditions at: KOBE observed 17 January 2018  10:55 UTC
Temperature: 8.0°C (46°F)
Dewpoint: 8.0°C (46°F) [RH = 100%]
Pressure (altimeter): 30.22 inches Hg (1023.5 mb)
Winds: calm
Visibility: 7 miles (11 km)
Ceiling: at least 12,000 feet AGL
Clouds: sky clear below 12,000 feet AGL
Present Weather: automated observation with no human augmentation;
there may or may not be significant weather present at this time
KOBE 171055Z AUTO 00000KT 7SM CLR 08/08 A3022 RMK AO2

Conditions at: KOBE observed 17 January 2018  10:35 UTC
Temperature: 8.0°C (46°F)
Dewpoint: 7.0°C (45°F) [RH = 93%]
Pressure (altimeter): 30.22 inches Hg (1023.5 mb)
Winds: calm
Visibility: 10 or more miles (16+ km)
Ceiling: at least 12,000 feet AGL
Clouds: sky clear below 12,000 feet AGL
Present Weather: automated observation with no human augmentation;
there may or may not be significant weather present at this time
KOBE 171035Z AUTO 00000KT 10SM CLR 08/07 A3022 RMK AO2

Conditions at: KOBE observed 17 January 2018  10:15 UTC
Temperature: 8.0°C (46°F)
Dewpoint: 8.0°C (46°F) [RH = 100%]
Pressure (altimeter): 30.21 inches Hg (1023.1 mb)
Winds: calm
Visibility: 10 or more miles (16+ km)
Ceiling: at least 12,000 feet AGL
Clouds: sky clear below 12,000 feet AGL
Present Weather: automated observation with no human augmentation;
there may or may not be significant weather present at this time
KOBE 171015Z AUTO 00000KT 10SM CLR 08/08 A3021 RMK AO2

Conditions at: KOBE observed 17 January 2018  09:55 UTC
Temperature: 9.0°C (48°F)
Dewpoint: 8.0°C (46°F) [RH = 93%]
Pressure (altimeter): 30.22 inches Hg (1023.5 mb)
Winds: from the NNW (340 degrees) at 3 MPH (3 knots; 1.6 m/s)
Visibility: 10 or more miles (16+ km)
Ceiling: at least 12,000 feet AGL
Clouds: sky clear below 12,000 feet AGL
Present Weather: automated observation with no human augmentation;
there may or may not be significant weather present at this time
KOBE 170955Z AUTO 34003KT 10SM CLR 09/08 A3022 RMK AO2

Conditions at: KOBE observed 17 January 2018  09:35 UTC
Temperature: 9.0°C (48°F)
Dewpoint: 9.0°C (48°F) [RH = 100%]
Pressure (altimeter): 30.21 inches Hg (1023.1 mb)
Winds: from the N (350 degrees) at 6 MPH (5 knots; 2.6 m/s)
Visibility: 10 or more miles (16+ km)
Ceiling: at least 12,000 feet AGL
Clouds: sky clear below 12,000 feet AGL
Present Weather: automated observation with no human augmentation;
there may or may not be significant weather present at this time
KOBE 170935Z AUTO 35005KT 10SM CLR 09/09 A3021 RMK AO2

Conditions at: KOBE observed 17 January 2018  09:15 UTC
Temperature: 9.0°C (48°F)
Dewpoint: 9.0°C (48°F) [RH = 100%]
Pressure (altimeter): 30.21 inches Hg (1023.1 mb)
Winds: from the NNW (340 degrees) at 6 MPH (5 knots; 2.6 m/s)
Visibility: 10 or more miles (16+ km)
Ceiling: at least 12,000 feet AGL
Clouds: sky clear below 12,000 feet AGL
Present Weather: automated observation with no human augmentation;
there may or may not be significant weather present at this time
KOBE 170915Z AUTO 34005KT 10SM CLR 09/09 A3021 RMK AO2

Conditions at: KOBE observed 17 January 2018  08:55 UTC
Temperature: 9.0°C (48°F)
Dewpoint: 8.0°C (46°F) [RH = 93%]
Pressure (altimeter): 30.21 inches Hg (1023.1 mb)
Winds: from the N (350 degrees) at 3 MPH (3 knots; 1.6 m/s)
Visibility: 7 miles (11 km)
Ceiling: at least 12,000 feet AGL
Clouds: sky clear below 12,000 feet AGL
Present Weather: automated observation with no human augmentation;
there may or may not be significant weather present at this time
KOBE 170855Z AUTO 35003KT 7SM CLR 09/08 A3021 RMK AO2

Conditions at: KOBE observed 17 January 2018  08:35 UTC
Temperature: 9.0°C (48°F)
Dewpoint: 8.0°C (46°F) [RH = 93%]
Pressure (altimeter): 30.21 inches Hg (1023.1 mb)
Winds: calm
Visibility: 10 or more miles (16+ km)
Ceiling: at least 12,000 feet AGL
Clouds: sky clear below 12,000 feet AGL
Present Weather: automated observation with no human augmentation;
there may or may not be significant weather present at this time
KOBE 170835Z AUTO 00000KT 10SM CLR 09/08 A3021 RMK AO2

Conditions at: KOBE observed 17 January 2018  08:15 UTC
Temperature: 8.0°C (46°F)
Dewpoint: 8.0°C (46°F) [RH = 100%]
Pressure (altimeter): 30.21 inches Hg (1023.1 mb)
Winds: calm
Visibility: 7 miles (11 km)
Ceiling: at least 12,000 feet AGL
Clouds: sky clear below 12,000 feet AGL
Present Weather: automated observation with no human augmentation;
there may or may not be significant weather present at this time
KOBE 170815Z AUTO 00000KT 7SM CLR 08/08 A3021 RMK AO2

Conditions at: KOBE observed 17 January 2018  07:55 UTC
Temperature: 9.0°C (48°F)
Dewpoint: 9.0°C (48°F) [RH = 100%]
Pressure (altimeter): 30.21 inches Hg (1023.1 mb)
Winds: calm
Visibility: 7 miles (11 km)
Ceiling: at least 12,000 feet AGL
Clouds: sky clear below 12,000 feet AGL
Present Weather: automated observation with no human augmentation;
there may or may not be significant weather present at this time
KOBE 170755Z AUTO 00000KT 7SM CLR 09/09 A3021 RMK AO2

Conditions at: KOBE observed 17 January 2018  07:35 UTC
Temperature: 10.0°C (50°F)
Dewpoint: 10.0°C (50°F) [RH = 100%]
Pressure (altimeter): 30.22 inches Hg (1023.5 mb)
Winds: calm
Visibility: 7 miles (11 km)
Ceiling: at least 12,000 feet AGL
Clouds: sky clear below 12,000 feet AGL
Present Weather: automated observation with no human augmentation;
there may or may not be significant weather present at this time
KOBE 170735Z AUTO 00000KT 7SM CLR 10/10 A3022 RMK AO2

Conditions at: KOBE observed 17 January 2018  07:15 UTC
Temperature: 10.0°C (50°F)
Dewpoint: 10.0°C (50°F) [RH = 100%]
Pressure (altimeter): 30.23 inches Hg (1023.8 mb)
Winds: from the N (350 degrees) at 5 MPH (4 knots; 2.1 m/s)
Visibility: 7 miles (11 km)
Ceiling: at least 12,000 feet AGL
Clouds: sky clear below 12,000 feet AGL
Present Weather: automated observation with no human augmentation;
there may or may not be significant weather present at this time
KOBE 170715Z AUTO 35004KT 7SM CLR 10/10 A3023 RMK AO2

Conditions at: KOBE observed 17 January 2018  06:55 UTC
Temperature: 9.0°C (48°F)
Dewpoint: 9.0°C (48°F) [RH = 100%]
Pressure (altimeter): 30.23 inches Hg (1023.8 mb)
Winds: from the NNW (330 degrees) at 3 MPH (3 knots; 1.6 m/s)
Visibility: 7 miles (11 km)
Ceiling: at least 12,000 feet AGL
Clouds: sky clear below 12,000 feet AGL
Present Weather: automated observation with no human augmentation;
there may or may not be significant weather present at this time
KOBE 170655Z AUTO 33003KT 7SM CLR 09/09 A3023 RMK AO2

Conditions at: KOBE observed 17 January 2018  06:35 UTC
Temperature: 10.0°C (50°F)
Dewpoint: 9.0°C (48°F) [RH = 93%]
Pressure (altimeter): 30.24 inches Hg (1024.1 mb)
Winds: calm
Visibility: 10 or more miles (16+ km)
Ceiling: at least 12,000 feet AGL
Clouds: sky clear below 12,000 feet AGL
Present Weather: automated observation with no human augmentation;
there may or may not be significant weather present at this time
KOBE 170635Z AUTO 00000KT 10SM CLR 10/09 A3024 RMK AO2

Conditions at: KOBE observed 17 January 2018  06:15 UTC
Temperature: 10.0°C (50°F)
Dewpoint: 9.0°C (48°F) [RH = 93%]
Pressure (altimeter): 30.24 inches Hg (1024.1 mb)
Winds: calm
Visibility: 7 miles (11 km)
Ceiling: at least 12,000 feet AGL
Clouds: sky clear below 12,000 feet AGL
Present Weather: automated observation with no human augmentation;
there may or may not be significant weather present at this time
KOBE 170615Z AUTO 00000KT 7SM CLR 10/09 A3024 RMK AO2

Conditions at: KOBE observed 17 January 2018  05:55 UTC
Temperature: 10.0°C (50°F)
Dewpoint: 10.0°C (50°F) [RH = 100%]
Pressure (altimeter): 30.25 inches Hg (1024.5 mb)
Winds: calm
Visibility: 10 or more miles (16+ km)
Ceiling: at least 12,000 feet AGL
Clouds: sky clear below 12,000 feet AGL
Present Weather: automated observation with no human augmentation;
there may or may not be significant weather present at this time
KOBE 170555Z AUTO 00000KT 10SM CLR 10/10 A3025 RMK AO2

Conditions at: KOBE observed 17 January 2018  05:35 UTC
Temperature: 10.0°C (50°F)
Dewpoint: 10.0°C (50°F) [RH = 100%]
Pressure (altimeter): 30.25 inches Hg (1024.5 mb)
Winds: calm
Visibility: 10 or more miles (16+ km)
Ceiling: at least 12,000 feet AGL
Clouds: sky clear below 12,000 feet AGL
Present Weather: automated observation with no human augmentation;
there may or may not be significant weather present at this time
KOBE 170535Z AUTO 00000KT 10SM CLR 10/10 A3025 RMK AO2

Conditions at: KOBE observed 17 January 2018  05:15 UTC
Temperature: 10.0°C (50°F)
Dewpoint: 10.0°C (50°F) [RH = 100%]
Pressure (altimeter): 30.26 inches Hg (1024.8 mb)
Winds: from the N (350 degrees) at 5 MPH (4 knots; 2.1 m/s)
Visibility: 10 or more miles (16+ km)
Ceiling: at least 12,000 feet AGL
Clouds: sky clear below 12,000 feet AGL
Present Weather: automated observation with no human augmentation;
there may or may not be significant weather present at this time
KOBE 170515Z AUTO 35004KT 10SM CLR 10/10 A3026 RMK AO2

Conditions at: KOBE observed 17 January 2018  04:55 UTC
Temperature: 10.0°C (50°F)
Dewpoint: 10.0°C (50°F) [RH = 100%]
Pressure (altimeter): 30.26 inches Hg (1024.8 mb)
Winds: from the N (360 degrees) at 3 MPH (3 knots; 1.6 m/s)
Visibility: 10 or more miles (16+ km)
Ceiling: at least 12,000 feet AGL
Clouds: sky clear below 12,000 feet AGL
Present Weather: automated observation with no human augmentation;
there may or may not be significant weather present at this time
KOBE 170455Z AUTO 36003KT 10SM CLR 10/10 A3026 RMK AO2

Conditions at: KOBE observed 17 January 2018  04:35 UTC
Temperature: 11.0°C (52°F)
Dewpoint: 10.0°C (50°F) [RH = 94%]
Pressure (altimeter): 30.27 inches Hg (1025.1 mb)
Winds: from the NNE (20 degrees) at 3 MPH (3 knots; 1.6 m/s)
Visibility: 10 or more miles (16+ km)
Ceiling: at least 12,000 feet AGL
Clouds: sky clear below 12,000 feet AGL
Present Weather: automated observation with no human augmentation;
there may or may not be significant weather present at this time
KOBE 170435Z AUTO 02003KT 10SM CLR 11/10 A3027 RMK AO2

Conditions at: KOBE observed 17 January 2018  04:15 UTC
Temperature: 11.0°C (52°F)
Dewpoint: 10.0°C (50°F) [RH = 94%]
Pressure (altimeter): 30.27 inches Hg (1025.1 mb)
Winds: calm
Visibility: 10 or more miles (16+ km)
Ceiling: at least 12,000 feet AGL
Clouds: sky clear below 12,000 feet AGL
Present Weather: automated observation with no human augmentation;
there may or may not be significant weather present at this time
KOBE 170415Z AUTO 00000KT 10SM CLR 11/10 A3027 RMK AO2

Conditions at: KOBE observed 17 January 2018  03:55 UTC
Temperature: 11.0°C (52°F)
Dewpoint: 10.0°C (50°F) [RH = 94%]
Pressure (altimeter): 30.28 inches Hg (1025.5 mb)
Winds: from the NNE (20 degrees) at 3 MPH (3 knots; 1.6 m/s)
Visibility: 10 or more miles (16+ km)
Ceiling: at least 12,000 feet AGL
Clouds: sky clear below 12,000 feet AGL
Present Weather: automated observation with no human augmentation;
there may or may not be significant weather present at this time
KOBE 170355Z AUTO 02003KT 10SM CLR 11/10 A3028 RMK AO2

Conditions at: KOBE observed 17 January 2018  03:35 UTC
Temperature: 12.0°C (54°F)
Dewpoint: 11.0°C (52°F) [RH = 94%]
Pressure (altimeter): 30.29 inches Hg (1025.8 mb)
Winds: from the N (360 degrees) at 5 MPH (4 knots; 2.1 m/s)
Visibility: 10 or more miles (16+ km)
Ceiling: at least 12,000 feet AGL
Clouds: sky clear below 12,000 feet AGL
Present Weather: automated observation with no human augmentation;
there may or may not be significant weather present at this time
KOBE 170335Z AUTO 36004KT 10SM CLR 12/11 A3029 RMK AO2

Conditions at: KOBE observed 17 January 2018  03:15 UTC
Temperature: 12.0°C (54°F)
Dewpoint: 11.0°C (52°F) [RH = 94%]
Pressure (altimeter): 30.29 inches Hg (1025.8 mb)
Winds: from the NNE (20 degrees) at 7 MPH (6 knots; 3.1 m/s)
Visibility: 10 or more miles (16+ km)
Ceiling: at least 12,000 feet AGL
Clouds: sky clear below 12,000 feet AGL
Present Weather: automated observation with no human augmentation;
there may or may not be significant weather present at this time
KOBE 170315Z AUTO 02006KT 10SM CLR 12/11 A3029 RMK AO2

Conditions at: KOBE observed 17 January 2018  02:55 UTC
Temperature: 12.0°C (54°F)
Dewpoint: 11.0°C (52°F) [RH = 94%]
Pressure (altimeter): 30.28 inches Hg (1025.5 mb)
Winds: from the NNE (20 degrees) at 7 MPH (6 knots; 3.1 m/s)
Visibility: 10 or more miles (16+ km)
Ceiling: at least 12,000 feet AGL
Clouds: sky clear below 12,000 feet AGL
Present Weather: automated observation with no human augmentation;
there may or may not be significant weather present at this time
KOBE 170255Z AUTO 02006KT 10SM CLR 12/11 A3028 RMK AO2

Conditions at: KOBE observed 17 January 2018  02:35 UTC
Temperature: 12.0°C (54°F)
Dewpoint: 11.0°C (52°F) [RH = 94%]
Pressure (altimeter): 30.28 inches Hg (1025.5 mb)
Winds: from the NNE (30 degrees) at 6 MPH (5 knots; 2.6 m/s)
Visibility: 10 or more miles (16+ km)
Ceiling: at least 12,000 feet AGL
Clouds: sky clear below 12,000 feet AGL
Present Weather: automated observation with no human augmentation;
there may or may not be significant weather present at this time
KOBE 170235Z AUTO 03005KT 10SM CLR 12/11 A3028 RMK AO2

Conditions at: KOBE observed 17 January 2018  02:15 UTC
Temperature: 13.0°C (55°F)
Dewpoint: 11.0°C (52°F) [RH = 88%]
Pressure (altimeter): 30.28 inches Hg (1025.5 mb)
Winds: from the NNE (30 degrees) at 7 MPH (6 knots; 3.1 m/s)
Visibility: 10 or more miles (16+ km)
Ceiling: at least 12,000 feet AGL
Clouds: sky clear below 12,000 feet AGL
Present Weather: automated observation with no human augmentation;
there may or may not be significant weather present at this time
KOBE 170215Z AUTO 03006KT 10SM CLR 13/11 A3028 RMK AO2

Conditions at: KOBE observed 17 January 2018  01:55 UTC
Temperature: 13.0°C (55°F)
Dewpoint: 10.0°C (50°F) [RH = 82%]
Pressure (altimeter): 30.29 inches Hg (1025.8 mb)
Winds: from the NNE (20 degrees) at 7 MPH (6 knots; 3.1 m/s)
Visibility: 10 or more miles (16+ km)
Ceiling: at least 12,000 feet AGL
Clouds: sky clear below 12,000 feet AGL
Present Weather: automated observation with no human augmentation;
there may or may not be significant weather present at this time
KOBE 170155Z AUTO 02006KT 10SM CLR 13/10 A3029 RMK AO2

Conditions at: KOBE observed 17 January 2018  01:35 UTC
Temperature: 13.0°C (55°F)
Dewpoint: 10.0°C (50°F) [RH = 82%]
Pressure (altimeter): 30.28 inches Hg (1025.5 mb)
Winds: from the NNE (30 degrees) at 8 MPH (7 knots; 3.6 m/s)
Visibility: 10 or more miles (16+ km)
Ceiling: at least 12,000 feet AGL
Clouds: sky clear below 12,000 feet AGL
Present Weather: automated observation with no human augmentation;
there may or may not be significant weather present at this time
KOBE 170135Z AUTO 03007KT 10SM CLR 13/10 A3028 RMK AO2

Conditions at: KOBE observed 17 January 2018  01:15 UTC
Temperature: 13.0°C (55°F)
Dewpoint: 10.0°C (50°F) [RH = 82%]
Pressure (altimeter): 30.28 inches Hg (1025.5 mb)
Winds: from the NNE (30 degrees) at 7 MPH (6 knots; 3.1 m/s)
Visibility: 10 or more miles (16+ km)
Ceiling: at least 12,000 feet AGL
Clouds: sky clear below 12,000 feet AGL
Present Weather: automated observation with no human augmentation;
there may or may not be significant weather present at this time
KOBE 170115Z AUTO 03006KT 10SM CLR 13/10 A3028 RMK AO2

Conditions at: KOBE observed 17 January 2018  00:55 UTC
Temperature: 13.0°C (55°F)
Dewpoint: 10.0°C (50°F) [RH = 82%]
Pressure (altimeter): 30.27 inches Hg (1025.1 mb)
Winds: from the NNE (20 degrees) at 6 MPH (5 knots; 2.6 m/s)
Visibility: 10 or more miles (16+ km)
Ceiling: at least 12,000 feet AGL
Clouds: sky clear below 12,000 feet AGL
Present Weather: automated observation with no human augmentation;
there may or may not be significant weather present at this time
KOBE 170055Z AUTO 02005KT 10SM CLR 13/10 A3027 RMK AO2

Conditions at: KOBE observed 17 January 2018  00:35 UTC
Temperature: 15.0°C (59°F)
Dewpoint: 10.0°C (50°F) [RH = 72%]
Pressure (altimeter): 30.27 inches Hg (1025.1 mb)
Winds: from the NE (40 degrees) at 6 MPH (5 knots; 2.6 m/s)
Visibility: 10 or more miles (16+ km)
Ceiling: at least 12,000 feet AGL
Clouds: sky clear below 12,000 feet AGL
Present Weather: automated observation with no human augmentation;
there may or may not be significant weather present at this time
KOBE 170035Z AUTO 04005KT 10SM CLR 15/10 A3027 RMK AO2

Conditions at: KOBE observed 17 January 2018  00:15 UTC
Temperature: 15.0°C (59°F)
Dewpoint: 10.0°C (50°F) [RH = 72%]
Pressure (altimeter): 30.27 inches Hg (1025.1 mb)
Winds: from the NE (40 degrees) at 5 MPH (4 knots; 2.1 m/s)
Visibility: 10 or more miles (16+ km)
Ceiling: at least 12,000 feet AGL
Clouds: sky clear below 12,000 feet AGL
Present Weather: automated observation with no human augmentation;
there may or may not be significant weather present at this time
KOBE 170015Z AUTO 04004KT 10SM CLR 15/10 A3027 RMK AO2

Conditions at: KOBE observed 16 January 2018  23:55 UTC
Temperature: 15.0°C (59°F)
Dewpoint: 10.0°C (50°F) [RH = 72%]
Pressure (altimeter): 30.26 inches Hg (1024.8 mb)
Winds: from the NE (40 degrees) at 6 MPH (5 knots; 2.6 m/s)
Visibility: 10 or more miles (16+ km)
Ceiling: at least 12,000 feet AGL
Clouds: sky clear below 12,000 feet AGL
Present Weather: automated observation with no human augmentation;
there may or may not be significant weather present at this time
KOBE 162355Z AUTO 04005KT 10SM CLR 15/10 A3026 RMK AO2

Conditions at: KOBE observed 16 January 2018  23:35 UTC
Temperature: 16.0°C (61°F)
Dewpoint: 10.0°C (50°F) [RH = 68%]
Pressure (altimeter): 30.26 inches Hg (1024.8 mb)
Winds: from the NE (40 degrees) at 7 MPH (6 knots; 3.1 m/s)
Visibility: 10 or more miles (16+ km)
Ceiling: at least 12,000 feet AGL
Clouds: sky clear below 12,000 feet AGL
Present Weather: automated observation with no human augmentation;
there may or may not be significant weather present at this time
KOBE 162335Z AUTO 04006KT 10SM CLR 16/10 A3026 RMK AO2

Conditions at: KOBE observed 16 January 2018  23:15 UTC
Temperature: 16.0°C (61°F)
Dewpoint: 10.0°C (50°F) [RH = 68%]
Pressure (altimeter): 30.26 inches Hg (1024.8 mb)
Winds: from the NE (50 degrees) at 6 MPH (5 knots; 2.6 m/s)
Visibility: 10 or more miles (16+ km)
Ceiling: at least 12,000 feet AGL
Clouds: sky clear below 12,000 feet AGL
Present Weather: automated observation with no human augmentation;
there may or may not be significant weather present at this time
KOBE 162315Z AUTO 05005KT 10SM CLR 16/10 A3026 RMK AO2

Conditions at: KOBE observed 16 January 2018  22:55 UTC
Temperature: 17.0°C (63°F)
Dewpoint: 10.0°C (50°F) [RH = 63%]
Pressure (altimeter): 30.26 inches Hg (1024.8 mb)
Winds: from the NE (50 degrees) at 7 MPH (6 knots; 3.1 m/s)
Visibility: 10 or more miles (16+ km)
Ceiling: at least 12,000 feet AGL
Clouds: sky clear below 12,000 feet AGL
Present Weather: automated observation with no human augmentation;
there may or may not be significant weather present at this time
KOBE 162255Z AUTO 05006KT 10SM CLR 17/10 A3026 RMK AO2

Conditions at: KOBE observed 16 January 2018  22:35 UTC
Temperature: 18.0°C (64°F)
Dewpoint: 8.0°C (46°F) [RH = 52%]
Pressure (altimeter): 30.26 inches Hg (1024.8 mb)
Winds: from the NE (40 degrees) at 7 MPH (6 knots; 3.1 m/s)
Visibility: 10 or more miles (16+ km)
Ceiling: at least 12,000 feet AGL
Clouds: sky clear below 12,000 feet AGL
Present Weather: automated observation with no human augmentation;
there may or may not be significant weather present at this time
KOBE 162235Z AUTO 04006KT 10SM CLR 18/08 A3026 RMK AO2

Conditions at: KOBE observed 16 January 2018  22:15 UTC
Temperature: 19.0°C (66°F)
Dewpoint: 8.0°C (46°F) [RH = 49%]
Pressure (altimeter): 30.25 inches Hg (1024.5 mb)
Winds: from the NE (40 degrees) at 7 MPH (6 knots; 3.1 m/s)
Visibility: 10 or more miles (16+ km)
Ceiling: at least 12,000 feet AGL
Clouds: sky clear below 12,000 feet AGL
Present Weather: automated observation with no human augmentation;
there may or may not be significant weather present at this time
KOBE 162215Z AUTO 04006KT 10SM CLR 19/08 A3025 RMK AO2

Conditions at: KOBE observed 16 January 2018  21:55 UTC
Temperature: 20.0°C (68°F)
Dewpoint: 8.0°C (46°F) [RH = 46%]
Pressure (altimeter): 30.26 inches Hg (1024.8 mb)
Winds: from the NNE (30 degrees) at 12 MPH (10 knots; 5.2 m/s)
Visibility: 10 or more miles (16+ km)
Ceiling: at least 12,000 feet AGL
Clouds: sky clear below 12,000 feet AGL
Present Weather: automated observation with no human augmentation;
there may or may not be significant weather present at this time
KOBE 162155Z AUTO 03010KT 10SM CLR 20/08 A3026 RMK AO2

Conditions at: KOBE observed 16 January 2018  21:35 UTC
Temperature: 20.0°C (68°F)
Dewpoint: 9.0°C (48°F) [RH = 49%]
Pressure (altimeter): 30.26 inches Hg (1024.8 mb)
Winds: from the NNE (30 degrees) at 7 MPH (6 knots; 3.1 m/s)
Visibility: 10 or more miles (16+ km)
Ceiling: at least 12,000 feet AGL
Clouds: scattered clouds at 5500 feet AGL
Present Weather: automated observation with no human augmentation;
there may or may not be significant weather present at this time
KOBE 162135Z AUTO 03006KT 10SM SCT055 20/09 A3026 RMK AO2

Conditions at: KOBE observed 16 January 2018  21:15 UTC
Temperature: 21.0°C (70°F)
Dewpoint: 9.0°C (48°F) [RH = 46%]
Pressure (altimeter): 30.25 inches Hg (1024.5 mb)
Winds: from the NNE (20 degrees) at 12 MPH (10 knots; 5.2 m/s)
Visibility: 10 or more miles (16+ km)
Ceiling: at least 12,000 feet AGL
Clouds: scattered clouds at 5500 feet AGL
Present Weather: automated observation with no human augmentation;
there may or may not be significant weather present at this time
KOBE 162115Z AUTO 02010KT 10SM SCT055 21/09 A3025 RMK AO2

Conditions at: KOBE observed 16 January 2018  20:55 UTC
Temperature: 21.0°C (70°F)
Dewpoint: 8.0°C (46°F) [RH = 43%]
Pressure (altimeter): 30.25 inches Hg (1024.5 mb)
Winds: from the NNE (30 degrees) at 10 MPH (9 knots; 4.7 m/s)
Visibility: 10 or more miles (16+ km)
Ceiling: at least 12,000 feet AGL
Clouds: scattered clouds at 5500 feet AGL
Present Weather: automated observation with no human augmentation;
there may or may not be significant weather present at this time
KOBE 162055Z AUTO 03009KT 10SM SCT055 21/08 A3025 RMK AO2

Conditions at: KOBE observed 16 January 2018  20:35 UTC
Temperature: 22.0°C (72°F)
Dewpoint: 8.0°C (46°F) [RH = 41%]
Pressure (altimeter): 30.24 inches Hg (1024.1 mb)
Winds: from the NNE (30 degrees) at 9 MPH (8 knots; 4.2 m/s)
Visibility: 10 or more miles (16+ km)
Ceiling: at least 12,000 feet AGL
Clouds: scattered clouds at 5500 feet AGL
Present Weather: automated observation with no human augmentation;
there may or may not be significant weather present at this time
KOBE 162035Z AUTO 03008KT 10SM SCT055 22/08 A3024 RMK AO2

Conditions at: KOBE observed 16 January 2018  20:15 UTC
Temperature: 22.0°C (72°F)
Dewpoint: 9.0°C (48°F) [RH = 43%]
Pressure (altimeter): 30.25 inches Hg (1024.5 mb)
Winds: from the NNE (30 degrees) at 14 MPH (12 knots; 6.2 m/s)
gusting to 17 MPH (15 knots; 7.8 m/s)
Visibility: 10 or more miles (16+ km)
Ceiling: 5500 feet AGL
Clouds: broken clouds at 5500 feet AGL
Present Weather: automated observation with no human augmentation;
there may or may not be significant weather present at this time
KOBE 162015Z AUTO 03012G15KT 10SM BKN055 22/09 A3025 RMK AO2

Conditions at: KOBE observed 16 January 2018  19:55 UTC
Temperature: 23.0°C (73°F)
Dewpoint: 8.0°C (46°F) [RH = 38%]
Pressure (altimeter): 30.25 inches Hg (1024.5 mb)
Winds: from the NNE (20 degrees) at 13 MPH (11 knots; 5.7 m/s)
gusting to 18 MPH (16 knots; 8.3 m/s)
Visibility: 10 or more miles (16+ km)
Ceiling: at least 12,000 feet AGL
Clouds: scattered clouds at 5500 feet AGL
Present Weather: automated observation with no human augmentation;
there may or may not be significant weather present at this time
KOBE 161955Z AUTO 02011G16KT 10SM SCT055 23/08 A3025 RMK AO2

Conditions at: KOBE observed 16 January 2018  19:35 UTC
Temperature: 22.0°C (72°F)
Dewpoint: 8.0°C (46°F) [RH = 41%]
Pressure (altimeter): 30.25 inches Hg (1024.5 mb)
Winds: from the NNE (20 degrees) at 12 MPH (10 knots; 5.2 m/s)
gusting to 16 MPH (14 knots; 7.3 m/s)
Visibility: 10 or more miles (16+ km)
Ceiling: at least 12,000 feet AGL
Clouds: sky clear below 12,000 feet AGL
Present Weather: automated observation with no human augmentation;
there may or may not be significant weather present at this time
KOBE 161935Z AUTO 02010G14KT 10SM CLR 22/08 A3025 RMK AO2

Conditions at: KOBE observed 16 January 2018  19:15 UTC
Temperature: 21.0°C (70°F)
Dewpoint: 8.0°C (46°F) [RH = 43%]
Pressure (altimeter): 30.26 inches Hg (1024.8 mb)
Winds: from the NNE (20 degrees) at 8 MPH (7 knots; 3.6 m/s)
Visibility: 10 or more miles (16+ km)
Ceiling: at least 12,000 feet AGL
Clouds: scattered clouds at 5500 feet AGL
Present Weather: automated observation with no human augmentation;
there may or may not be significant weather present at this time
KOBE 161915Z AUTO 02007KT 10SM SCT055 21/08 A3026 RMK AO2

Conditions at: KOBE observed 16 January 2018  18:55 UTC
Temperature: 23.0°C (73°F)
Dewpoint: 9.0°C (48°F) [RH = 41%]
Pressure (altimeter): 30.27 inches Hg (1025.1 mb)
Winds: from the ENE (70 degrees) at 10 MPH (9 knots; 4.7 m/s)
Visibility: 10 or more miles (16+ km)
Ceiling: at least 12,000 feet AGL
Clouds: scattered clouds at 5500 feet AGL
Present Weather: automated observation with no human augmentation;
there may or may not be significant weather present at this time
KOBE 161855Z AUTO 07009KT 10SM SCT055 23/09 A3027 RMK AO2

Conditions at: KOBE observed 16 January 2018  18:35 UTC
Temperature: 23.0°C (73°F)
Dewpoint: 9.0°C (48°F) [RH = 41%]
Pressure (altimeter): 30.28 inches Hg (1025.5 mb)
Winds: from the ENE (60 degrees) at 9 MPH (8 knots; 4.2 m/s)
Visibility: 10 or more miles (16+ km)
Ceiling: at least 12,000 feet AGL
Clouds: scattered clouds at 5500 feet AGL
scattered clouds at 6500 feet AGL
Present Weather: automated observation with no human augmentation;
there may or may not be significant weather present at this time
KOBE 161835Z AUTO 06008KT 10SM SCT055 SCT065 23/09 A3028 RMK AO2

Conditions at: KOBE observed 16 January 2018  18:15 UTC
Temperature: 21.0°C (70°F)
Dewpoint: 8.0°C (46°F) [RH = 43%]
Pressure (altimeter): 30.28 inches Hg (1025.5 mb)
Winds: from the E (90 degrees) at 5 MPH (4 knots; 2.1 m/s)
Visibility: 10 or more miles (16+ km)
Ceiling: 6500 feet AGL
Clouds: scattered clouds at 5500 feet AGL
broken clouds at 6500 feet AGL
Present Weather: automated observation with no human augmentation;
there may or may not be significant weather present at this time
KOBE 161815Z AUTO 09004KT 10SM SCT055 BKN065 21/08 A3028 RMK AO2

Conditions at: KOBE observed 16 January 2018  17:55 UTC
Temperature: 22.0°C (72°F)
Dewpoint: 9.0°C (48°F) [RH = 43%]
Pressure (altimeter): 30.30 inches Hg (1026.2 mb)
Winds: from the NNE (30 degrees) at 7 MPH (6 knots; 3.1 m/s)
gusting to 16 MPH (14 knots; 7.3 m/s)
Visibility: 10 or more miles (16+ km)
Ceiling: at least 12,000 feet AGL
Clouds: scattered clouds at 5500 feet AGL
Present Weather: automated observation with no human augmentation;
there may or may not be significant weather present at this time
KOBE 161755Z AUTO 03006G14KT 10SM SCT055 22/09 A3030 RMK AO2

Conditions at: KOBE observed 16 January 2018  17:35 UTC
Temperature: 22.0°C (72°F)
Dewpoint: 9.0°C (48°F) [RH = 43%]
Pressure (altimeter): 30.31 inches Hg (1026.5 mb)
Winds: from the NE (50 degrees) at 9 MPH (8 knots; 4.2 m/s)
Visibility: 10 or more miles (16+ km)
Ceiling: at least 12,000 feet AGL
Clouds: scattered clouds at 5500 feet AGL
Present Weather: automated observation with no human augmentation;
there may or may not be significant weather present at this time
KOBE 161735Z AUTO 05008KT 10SM SCT055 22/09 A3031 RMK AO2

Conditions at: KOBE observed 16 January 2018  17:15 UTC
Temperature: 21.0°C (70°F)
Dewpoint: 9.0°C (48°F) [RH = 46%]
Pressure (altimeter): 30.32 inches Hg (1026.8 mb)
Winds: from the NE (40 degrees) at 9 MPH (8 knots; 4.2 m/s)
Visibility: 10 or more miles (16+ km)
Ceiling: at least 12,000 feet AGL
Clouds: sky clear below 12,000 feet AGL
Present Weather: automated observation with no human augmentation;
there may or may not be significant weather present at this time
KOBE 161715Z AUTO 04008KT 10SM CLR 21/09 A3032 RMK AO2

Conditions at: KOBE observed 16 January 2018  16:55 UTC
Temperature: 22.0°C (72°F)
Dewpoint: 10.0°C (50°F) [RH = 46%]
Pressure (altimeter): 30.33 inches Hg (1027.2 mb)
Winds: from the NE (50 degrees) at 8 MPH (7 knots; 3.6 m/s)
Visibility: 10 or more miles (16+ km)
Ceiling: at least 12,000 feet AGL
Clouds: scattered clouds at 4200 feet AGL
Present Weather: automated observation with no human augmentation;
there may or may not be significant weather present at this time
KOBE 161655Z AUTO 05007KT 10SM SCT042 22/10 A3033 RMK AO2

Conditions at: KOBE observed 16 January 2018  16:35 UTC
Temperature: 22.0°C (72°F)
Dewpoint: 11.0°C (52°F) [RH = 50%]
Pressure (altimeter): 30.34 inches Hg (1027.5 mb)
Winds: from the E (80 degrees) at 6 MPH (5 knots; 2.6 m/s)
Visibility: 10 or more miles (16+ km)
Ceiling: at least 12,000 feet AGL
Clouds: sky clear below 12,000 feet AGL
Present Weather: automated observation with no human augmentation;
there may or may not be significant weather present at this time
KOBE 161635Z AUTO 08005KT 10SM CLR 22/11 A3034 RMK AO2

Conditions at: KOBE observed 16 January 2018  16:15 UTC
Temperature: 21.0°C (70°F)
Dewpoint: 11.0°C (52°F) [RH = 53%]
Pressure (altimeter): 30.35 inches Hg (1027.9 mb)
Winds: from the NE (50 degrees) at 9 MPH (8 knots; 4.2 m/s)
Visibility: 10 or more miles (16+ km)
Ceiling: at least 12,000 feet AGL
Clouds: sky clear below 12,000 feet AGL
Present Weather: automated observation with no human augmentation;
there may or may not be significant weather present at this time
KOBE 161615Z AUTO 05008KT 10SM CLR 21/11 A3035 RMK AO2

Conditions at: KOBE observed 16 January 2018  15:55 UTC
Temperature: 21.0°C (70°F)
Dewpoint: 11.0°C (52°F) [RH = 53%]
Pressure (altimeter): 30.35 inches Hg (1027.9 mb)
Winds: from the NE (40 degrees) at 13 MPH (11 knots; 5.7 m/s)
Visibility: 10 or more miles (16+ km)
Ceiling: at least 12,000 feet AGL
Clouds: sky clear below 12,000 feet AGL
Present Weather: automated observation with no human augmentation;
there may or may not be significant weather present at this time
KOBE 161555Z AUTO 04011KT 10SM CLR 21/11 A3035 RMK AO2

Conditions at: KOBE observed 16 January 2018  15:35 UTC
Temperature: 20.0°C (68°F)
Dewpoint: 12.0°C (54°F) [RH = 60%]
Pressure (altimeter): 30.35 inches Hg (1027.9 mb)
Winds: from the ENE (60 degrees) at 6 MPH (5 knots; 2.6 m/s)
Visibility: 10 or more miles (16+ km)
Ceiling: at least 12,000 feet AGL
Clouds: sky clear below 12,000 feet AGL
Present Weather: automated observation with no human augmentation;
there may or may not be significant weather present at this time
KOBE 161535Z AUTO 06005KT 10SM CLR 20/12 A3035 RMK AO2

Conditions at: KOBE observed 16 January 2018  15:15 UTC
Temperature: 18.0°C (64°F)
Dewpoint: 12.0°C (54°F) [RH = 68%]
Pressure (altimeter): 30.36 inches Hg (1028.2 mb)
Winds: from the NE (50 degrees) at 7 MPH (6 knots; 3.1 m/s)
Visibility: 10 or more miles (16+ km)
Ceiling: at least 12,000 feet AGL
Clouds: sky clear below 12,000 feet AGL
Present Weather: automated observation with no human augmentation;
there may or may not be significant weather present at this time
KOBE 161515Z AUTO 05006KT 10SM CLR 18/12 A3036 RMK AO2

Conditions at: KOBE observed 16 January 2018  15:00 UTC
Temperature: 17.0°C (63°F)
Dewpoint: 12.0°C (54°F) [RH = 72%]
Pressure (altimeter): 30.36 inches Hg (1028.2 mb)
Winds: from the NNE (30 degrees) at 7 MPH (6 knots; 3.1 m/s)
Visibility: 10 or more miles (16+ km)
Ceiling: at least 12,000 feet AGL
Clouds: sky clear below 12,000 feet AGL
Present Weather: automated observation with no human augmentation;
there may or may not be significant weather present at this time
KOBE 161500Z AUTO 03006KT 10SM CLR 17/12 A3036 RMK AO2

Conditions at: KOBE observed 16 January 2018  14:35 UTC
Temperature: 16.0°C (61°F)
Dewpoint: 12.0°C (54°F) [RH = 77%]
Pressure (altimeter): 30.36 inches Hg (1028.2 mb)
Winds: calm
Visibility: 10 or more miles (16+ km)
Ceiling: at least 12,000 feet AGL
Clouds: sky clear below 12,000 feet AGL
Present Weather: automated observation with no human augmentation;
there may or may not be significant weather present at this time
KOBE 161435Z AUTO 00000KT 10SM CLR 16/12 A3036 RMK AO2

Conditions at: KOBE observed 16 January 2018  14:15 UTC
Temperature: 14.0°C (57°F)
Dewpoint: 11.0°C (52°F) [RH = 82%]
Pressure (altimeter): 30.35 inches Hg (1027.9 mb)
Winds: from the NNE (20 degrees) at 3 MPH (3 knots; 1.6 m/s)
Visibility: 10 or more miles (16+ km)
Ceiling: at least 12,000 feet AGL
Clouds: sky clear below 12,000 feet AGL
Present Weather: automated observation with no human augmentation;
there may or may not be significant weather present at this time
KOBE 161415Z AUTO 02003KT 10SM CLR 14/11 A3035 RMK AO2

Conditions at: KOBE observed 16 January 2018  13:55 UTC
Temperature: 12.0°C (54°F)
Dewpoint: 10.0°C (50°F) [RH = 88%]
Pressure (altimeter): 30.35 inches Hg (1027.9 mb)
Winds: calm
Visibility: 10 or more miles (16+ km)
Ceiling: at least 12,000 feet AGL
Clouds: sky clear below 12,000 feet AGL
Present Weather: automated observation with no human augmentation;
there may or may not be significant weather present at this time
KOBE 161355Z AUTO 00000KT 10SM CLR 12/10 A3035 RMK AO2

Conditions at: KOBE observed 16 January 2018  13:35 UTC
Temperature: 10.0°C (50°F)
Dewpoint: 10.0°C (50°F) [RH = 100%]
Pressure (altimeter): 30.35 inches Hg (1027.9 mb)
Winds: from the NNW (340 degrees) at 3 MPH (3 knots; 1.6 m/s)
Visibility: 10 or more miles (16+ km)
Ceiling: at least 12,000 feet AGL
Clouds: sky clear below 12,000 feet AGL
Present Weather: automated observation with no human augmentation;
there may or may not be significant weather present at this time
KOBE 161335Z AUTO 34003KT 10SM CLR 10/10 A3035 RMK AO2

Conditions at: KOBE observed 16 January 2018  13:15 UTC
Temperature: 9.0°C (48°F)
Dewpoint: 8.0°C (46°F) [RH = 93%]
Pressure (altimeter): 30.34 inches Hg (1027.5 mb)
Winds: calm
Visibility: 10 or more miles (16+ km)
Ceiling: at least 12,000 feet AGL
Clouds: sky clear below 12,000 feet AGL
Present Weather: automated observation with no human augmentation;
there may or may not be significant weather present at this time
KOBE 161315Z AUTO 00000KT 10SM CLR 09/08 A3034 RMK AO2

Conditions at: KOBE observed 16 January 2018  12:55 UTC
Temperature: 8.0°C (46°F)
Dewpoint: 7.0°C (45°F) [RH = 93%]
Pressure (altimeter): 30.33 inches Hg (1027.2 mb)
Winds: calm
Visibility: 10 or more miles (16+ km)
Ceiling: at least 12,000 feet AGL
Clouds: sky clear below 12,000 feet AGL
Present Weather: automated observation with no human augmentation;
there may or may not be significant weather present at this time
KOBE 161255Z AUTO 00000KT 10SM CLR 08/07 A3033 RMK AO2

Conditions at: KOBE observed 16 January 2018  12:35 UTC
Temperature: 7.0°C (45°F)
Dewpoint: 7.0°C (45°F) [RH = 100%]
Pressure (altimeter): 30.33 inches Hg (1027.2 mb)
Winds: calm
Visibility: 10 or more miles (16+ km)
Ceiling: at least 12,000 feet AGL
Clouds: sky clear below 12,000 feet AGL
Present Weather: automated observation with no human augmentation;
there may or may not be significant weather present at this time
KOBE 161235Z AUTO 00000KT 10SM CLR 07/07 A3033 RMK AO2

Conditions at: KOBE observed 16 January 2018  12:15 UTC
Temperature: 7.0°C (45°F)
Dewpoint: 7.0°C (45°F) [RH = 100%]
Pressure (altimeter): 30.32 inches Hg (1026.8 mb)
Winds: from the N (360 degrees) at 3 MPH (3 knots; 1.6 m/s)
Visibility: 10 or more miles (16+ km)
Ceiling: at least 12,000 feet AGL
Clouds: sky clear below 12,000 feet AGL
Present Weather: automated observation with no human augmentation;
there may or may not be significant weather present at this time
KOBE 161215Z AUTO 36003KT 10SM CLR 07/07 A3032 RMK AO2

Conditions at: KOBE observed 16 January 2018  11:55 UTC
Temperature: 7.0°C (45°F)
Dewpoint: 7.0°C (45°F) [RH = 100%]
Pressure (altimeter): 30.32 inches Hg (1026.8 mb)
Winds: calm
Visibility: 10 or more miles (16+ km)
Ceiling: at least 12,000 feet AGL
Clouds: sky clear below 12,000 feet AGL
Present Weather: automated observation with no human augmentation;
there may or may not be significant weather present at this time
KOBE 161155Z AUTO 00000KT 10SM CLR 07/07 A3032 RMK AO2

Conditions at: KOBE observed 16 January 2018  11:35 UTC
Temperature: 7.0°C (45°F)
Dewpoint: 7.0°C (45°F) [RH = 100%]
Pressure (altimeter): 30.31 inches Hg (1026.5 mb)
Winds: from the N (350 degrees) at 5 MPH (4 knots; 2.1 m/s)
Visibility: 10 or more miles (16+ km)
Ceiling: at least 12,000 feet AGL
Clouds: sky clear below 12,000 feet AGL
Present Weather: automated observation with no human augmentation;
there may or may not be significant weather present at this time
KOBE 161135Z AUTO 35004KT 10SM CLR 07/07 A3031 RMK AO2

Conditions at: KOBE observed 16 January 2018  11:15 UTC
Temperature: 7.0°C (45°F)
Dewpoint: 7.0°C (45°F) [RH = 100%]
Pressure (altimeter): 30.32 inches Hg (1026.8 mb)
Winds: from the NNW (340 degrees) at 3 MPH (3 knots; 1.6 m/s)
Visibility: 10 or more miles (16+ km)
Ceiling: at least 12,000 feet AGL
Clouds: sky clear below 12,000 feet AGL
Present Weather: automated observation with no human augmentation;
there may or may not be significant weather present at this time
KOBE 161115Z AUTO 34003KT 10SM CLR 07/07 A3032 RMK AO2

Conditions at: KOBE observed 16 January 2018  10:55 UTC
Temperature: 7.0°C (45°F)
Dewpoint: 7.0°C (45°F) [RH = 100%]
Pressure (altimeter): 30.31 inches Hg (1026.5 mb)
Winds: calm
Visibility: 10 or more miles (16+ km)
Ceiling: at least 12,000 feet AGL
Clouds: sky clear below 12,000 feet AGL
Present Weather: automated observation with no human augmentation;
there may or may not be significant weather present at this time
KOBE 161055Z AUTO 00000KT 10SM CLR 07/07 A3031 RMK AO2

Conditions at: KOBE observed 16 January 2018  10:35 UTC
Temperature: 7.0°C (45°F)
Dewpoint: 7.0°C (45°F) [RH = 100%]
Pressure (altimeter): 30.30 inches Hg (1026.2 mb)
Winds: from the N (360 degrees) at 3 MPH (3 knots; 1.6 m/s)
Visibility: 10 or more miles (16+ km)
Ceiling: at least 12,000 feet AGL
Clouds: sky clear below 12,000 feet AGL
Present Weather: automated observation with no human augmentation;
there may or may not be significant weather present at this time
KOBE 161035Z AUTO 36003KT 10SM CLR 07/07 A3030 RMK AO2

Conditions at: KOBE observed 16 January 2018  10:15 UTC
Temperature: 7.0°C (45°F)
Dewpoint: 7.0°C (45°F) [RH = 100%]
Pressure (altimeter): 30.30 inches Hg (1026.2 mb)
Winds: from the N (360 degrees) at 3 MPH (3 knots; 1.6 m/s)
Visibility: 10 or more miles (16+ km)
Ceiling: at least 12,000 feet AGL
Clouds: sky clear below 12,000 feet AGL
Present Weather: automated observation with no human augmentation;
there may or may not be significant weather present at this time
KOBE 161015Z AUTO 36003KT 10SM CLR 07/07 A3030 RMK AO2

Conditions at: KOBE observed 16 January 2018  09:55 UTC
Temperature: 7.0°C (45°F)
Dewpoint: 7.0°C (45°F) [RH = 100%]
Pressure (altimeter): 30.30 inches Hg (1026.2 mb)
Winds: from the N (350 degrees) at 6 MPH (5 knots; 2.6 m/s)
Visibility: 10 or more miles (16+ km)
Ceiling: at least 12,000 feet AGL
Clouds: sky clear below 12,000 feet AGL
Present Weather: automated observation with no human augmentation;
there may or may not be significant weather present at this time
KOBE 160955Z AUTO 35005KT 10SM CLR 07/07 A3030 RMK AO2

Conditions at: KOBE observed 16 January 2018  09:35 UTC
Temperature: 7.0°C (45°F)
Dewpoint: 7.0°C (45°F) [RH = 100%]
Pressure (altimeter): 30.30 inches Hg (1026.2 mb)
Winds: from the N (350 degrees) at 6 MPH (5 knots; 2.6 m/s)
Visibility: 10 or more miles (16+ km)
Ceiling: at least 12,000 feet AGL
Clouds: scattered clouds at 3800 feet AGL
Present Weather: automated observation with no human augmentation;
there may or may not be significant weather present at this time
KOBE 160935Z AUTO 35005KT 10SM SCT038 07/07 A3030 RMK AO2

Conditions at: KOBE observed 16 January 2018  09:15 UTC
Temperature: 7.0°C (45°F)
Dewpoint: 7.0°C (45°F) [RH = 100%]
Pressure (altimeter): 30.30 inches Hg (1026.2 mb)
Winds: from the NNW (340 degrees) at 5 MPH (4 knots; 2.1 m/s)
Visibility: 10 or more miles (16+ km)
Ceiling: at least 12,000 feet AGL
Clouds: scattered clouds at 3800 feet AGL
Present Weather: automated observation with no human augmentation;
there may or may not be significant weather present at this time
KOBE 160915Z AUTO 34004KT 10SM SCT038 07/07 A3030 RMK AO2

Conditions at: KOBE observed 16 January 2018  09:00 UTC
Temperature: 7.0°C (45°F)
Dewpoint: 7.0°C (45°F) [RH = 100%]
Pressure (altimeter): 30.30 inches Hg (1026.2 mb)
Winds: from the N (350 degrees) at 3 MPH (3 knots; 1.6 m/s)
Visibility: 10 or more miles (16+ km)
Ceiling: at least 12,000 feet AGL
Clouds: sky clear below 12,000 feet AGL
Present Weather: automated observation with no human augmentation;
there may or may not be significant weather present at this time
KOBE 160900Z AUTO 35003KT 10SM CLR 07/07 A3030 RMK AO2

Conditions at: KOBE observed 16 January 2018  08:35 UTC
Temperature: 7.0°C (45°F)
Dewpoint: 7.0°C (45°F) [RH = 100%]
Pressure (altimeter): 30.29 inches Hg (1025.8 mb)
Winds: from the NNW (340 degrees) at 3 MPH (3 knots; 1.6 m/s)
Visibility: 10 or more miles (16+ km)
Ceiling: at least 12,000 feet AGL
Clouds: sky clear below 12,000 feet AGL
Present Weather: automated observation with no human augmentation;
there may or may not be significant weather present at this time
KOBE 160835Z AUTO 34003KT 10SM CLR 07/07 A3029 RMK AO2

Conditions at: KOBE observed 16 January 2018  08:15 UTC
Temperature: 7.0°C (45°F)
Dewpoint: 7.0°C (45°F) [RH = 100%]
Pressure (altimeter): 30.29 inches Hg (1025.8 mb)
Winds: calm
Visibility: 10 or more miles (16+ km)
Ceiling: at least 12,000 feet AGL
Clouds: sky clear below 12,000 feet AGL
Present Weather: automated observation with no human augmentation;
there may or may not be significant weather present at this time
KOBE 160815Z AUTO 00000KT 10SM CLR 07/07 A3029 RMK AO2

Conditions at: KOBE observed 16 January 2018  07:55 UTC
Temperature: 8.0°C (46°F)
Dewpoint: 7.0°C (45°F) [RH = 93%]
Pressure (altimeter): 30.29 inches Hg (1025.8 mb)
Winds: calm
Visibility: 10 or more miles (16+ km)
Ceiling: at least 12,000 feet AGL
Clouds: sky clear below 12,000 feet AGL
Present Weather: automated observation with no human augmentation;
there may or may not be significant weather present at this time
KOBE 160755Z AUTO 00000KT 10SM CLR 08/07 A3029 RMK AO2

Conditions at: KOBE observed 16 January 2018  07:35 UTC
Temperature: 8.0°C (46°F)
Dewpoint: 7.0°C (45°F) [RH = 93%]
Pressure (altimeter): 30.29 inches Hg (1025.8 mb)
Winds: from the N (350 degrees) at 3 MPH (3 knots; 1.6 m/s)
Visibility: 10 or more miles (16+ km)
Ceiling: at least 12,000 feet AGL
Clouds: sky clear below 12,000 feet AGL
Present Weather: automated observation with no human augmentation;
there may or may not be significant weather present at this time
KOBE 160735Z AUTO 35003KT 10SM CLR 08/07 A3029 RMK AO2

Conditions at: KOBE observed 16 January 2018  07:15 UTC
Temperature: 8.0°C (46°F)
Dewpoint: 8.0°C (46°F) [RH = 100%]
Pressure (altimeter): 30.30 inches Hg (1026.2 mb)
Winds: from the N (350 degrees) at 5 MPH (4 knots; 2.1 m/s)
Visibility: 10 or more miles (16+ km)
Ceiling: at least 12,000 feet AGL
Clouds: sky clear below 12,000 feet AGL
Present Weather: automated observation with no human augmentation;
there may or may not be significant weather present at this time
KOBE 160715Z AUTO 35004KT 10SM CLR 08/08 A3030 RMK AO2

Conditions at: KOBE observed 16 January 2018  06:55 UTC
Temperature: 8.0°C (46°F)
Dewpoint: 8.0°C (46°F) [RH = 100%]
Pressure (altimeter): 30.31 inches Hg (1026.5 mb)
Winds: from the N (360 degrees) at 3 MPH (3 knots; 1.6 m/s)
Visibility: 10 or more miles (16+ km)
Ceiling: at least 12,000 feet AGL
Clouds: sky clear below 12,000 feet AGL
Present Weather: automated observation with no human augmentation;
there may or may not be significant weather present at this time
KOBE 160655Z AUTO 36003KT 10SM CLR 08/08 A3031 RMK AO2

Conditions at: KOBE observed 16 January 2018  06:35 UTC
Temperature: 8.0°C (46°F)
Dewpoint: 8.0°C (46°F) [RH = 100%]
Pressure (altimeter): 30.31 inches Hg (1026.5 mb)
Winds: from the N (350 degrees) at 6 MPH (5 knots; 2.6 m/s)
Visibility: 10 or more miles (16+ km)
Ceiling: at least 12,000 feet AGL
Clouds: sky clear below 12,000 feet AGL
Present Weather: automated observation with no human augmentation;
there may or may not be significant weather present at this time
KOBE 160635Z AUTO 35005KT 10SM CLR 08/08 A3031 RMK AO2

Conditions at: KOBE observed 16 January 2018  06:15 UTC
Temperature: 9.0°C (48°F)
Dewpoint: 8.0°C (46°F) [RH = 93%]
Pressure (altimeter): 30.31 inches Hg (1026.5 mb)
Winds: from the N (350 degrees) at 6 MPH (5 knots; 2.6 m/s)
Visibility: 10 or more miles (16+ km)
Ceiling: at least 12,000 feet AGL
Clouds: sky clear below 12,000 feet AGL
Present Weather: automated observation with no human augmentation;
there may or may not be significant weather present at this time
KOBE 160615Z AUTO 35005KT 10SM CLR 09/08 A3031 RMK AO2

Conditions at: KOBE observed 16 January 2018  05:55 UTC
Temperature: 9.0°C (48°F)
Dewpoint: 8.0°C (46°F) [RH = 93%]
Pressure (altimeter): 30.31 inches Hg (1026.5 mb)
Winds: from the N (350 degrees) at 7 MPH (6 knots; 3.1 m/s)
Visibility: 10 or more miles (16+ km)
Ceiling: at least 12,000 feet AGL
Clouds: sky clear below 12,000 feet AGL
Present Weather: automated observation with no human augmentation;
there may or may not be significant weather present at this time
KOBE 160555Z AUTO 35006KT 10SM CLR 09/08 A3031 RMK AO2

Conditions at: KOBE observed 16 January 2018  05:35 UTC
Temperature: 10.0°C (50°F)
Dewpoint: 8.0°C (46°F) [RH = 87%]
Pressure (altimeter): 30.31 inches Hg (1026.5 mb)
Winds: from the NNW (340 degrees) at 7 MPH (6 knots; 3.1 m/s)
Visibility: 10 or more miles (16+ km)
Ceiling: at least 12,000 feet AGL
Clouds: sky clear below 12,000 feet AGL
Present Weather: automated observation with no human augmentation;
there may or may not be significant weather present at this time
KOBE 160535Z AUTO 34006KT 10SM CLR 10/08 A3031 RMK AO2

Conditions at: KOBE observed 16 January 2018  05:15 UTC
Temperature: 10.0°C (50°F)
Dewpoint: 8.0°C (46°F) [RH = 87%]
Pressure (altimeter): 30.31 inches Hg (1026.5 mb)
Winds: from the N (350 degrees) at 9 MPH (8 knots; 4.2 m/s)
Visibility: 10 or more miles (16+ km)
Ceiling: at least 12,000 feet AGL
Clouds: sky clear below 12,000 feet AGL
Present Weather: automated observation with no human augmentation;
there may or may not be significant weather present at this time
KOBE 160515Z AUTO 35008KT 10SM CLR 10/08 A3031 RMK AO2

Conditions at: KOBE observed 16 January 2018  04:55 UTC
Temperature: 10.0°C (50°F)
Dewpoint: 8.0°C (46°F) [RH = 87%]
Pressure (altimeter): 30.31 inches Hg (1026.5 mb)
Winds: from the N (360 degrees) at 9 MPH (8 knots; 4.2 m/s)
Visibility: 10 or more miles (16+ km)
Ceiling: at least 12,000 feet AGL
Clouds: sky clear below 12,000 feet AGL
Present Weather: automated observation with no human augmentation;
there may or may not be significant weather present at this time
KOBE 160455Z AUTO 36008KT 10SM CLR 10/08 A3031 RMK AO2

Conditions at: KOBE observed 16 January 2018  04:35 UTC
Temperature: 10.0°C (50°F)
Dewpoint: 8.0°C (46°F) [RH = 87%]
Pressure (altimeter): 30.32 inches Hg (1026.8 mb)
Winds: from the N (10 degrees) at 9 MPH (8 knots; 4.2 m/s)
Visibility: 10 or more miles (16+ km)
Ceiling: at least 12,000 feet AGL
Clouds: sky clear below 12,000 feet AGL
Present Weather: automated observation with no human augmentation;
there may or may not be significant weather present at this time
KOBE 160435Z AUTO 01008KT 10SM CLR 10/08 A3032 RMK AO2

Conditions at: KOBE observed 16 January 2018  04:15 UTC
Temperature: 11.0°C (52°F)
Dewpoint: 8.0°C (46°F) [RH = 82%]
Pressure (altimeter): 30.32 inches Hg (1026.8 mb)
Winds: from the N (360 degrees) at 7 MPH (6 knots; 3.1 m/s)
Visibility: 10 or more miles (16+ km)
Ceiling: at least 12,000 feet AGL
Clouds: sky clear below 12,000 feet AGL
Present Weather: automated observation with no human augmentation;
there may or may not be significant weather present at this time
KOBE 160415Z AUTO 36006KT 10SM CLR 11/08 A3032 RMK AO2

Conditions at: KOBE observed 16 January 2018  03:55 UTC
Temperature: 11.0°C (52°F)
Dewpoint: 8.0°C (46°F) [RH = 82%]
Pressure (altimeter): 30.33 inches Hg (1027.2 mb)
Winds: from the N (10 degrees) at 8 MPH (7 knots; 3.6 m/s)
Visibility: 10 or more miles (16+ km)
Ceiling: at least 12,000 feet AGL
Clouds: sky clear below 12,000 feet AGL
Present Weather: automated observation with no human augmentation;
there may or may not be significant weather present at this time
KOBE 160355Z AUTO 01007KT 10SM CLR 11/08 A3033 RMK AO2

Conditions at: KOBE observed 16 January 2018  03:35 UTC
Temperature: 11.0°C (52°F)
Dewpoint: 8.0°C (46°F) [RH = 82%]
Pressure (altimeter): 30.32 inches Hg (1026.8 mb)
Winds: from the N (360 degrees) at 9 MPH (8 knots; 4.2 m/s)
Visibility: 10 or more miles (16+ km)
Ceiling: at least 12,000 feet AGL
Clouds: sky clear below 12,000 feet AGL
Present Weather: automated observation with no human augmentation;
there may or may not be significant weather present at this time
KOBE 160335Z AUTO 36008KT 10SM CLR 11/08 A3032 RMK AO2

Conditions at: KOBE observed 16 January 2018  03:15 UTC
Temperature: 11.0°C (52°F)
Dewpoint: 8.0°C (46°F) [RH = 82%]
Pressure (altimeter): 30.33 inches Hg (1027.2 mb)
Winds: from the N (360 degrees) at 9 MPH (8 knots; 4.2 m/s)
Visibility: 10 or more miles (16+ km)
Ceiling: at least 12,000 feet AGL
Clouds: sky clear below 12,000 feet AGL
Present Weather: automated observation with no human augmentation;
there may or may not be significant weather present at this time
KOBE 160315Z AUTO 36008KT 10SM CLR 11/08 A3033 RMK AO2

Conditions at: KOBE observed 16 January 2018  02:55 UTC
Temperature: 11.0°C (52°F)
Dewpoint: 8.0°C (46°F) [RH = 82%]
Pressure (altimeter): 30.32 inches Hg (1026.8 mb)
Winds: from the N (10 degrees) at 9 MPH (8 knots; 4.2 m/s)
Visibility: 10 or more miles (16+ km)
Ceiling: at least 12,000 feet AGL
Clouds: sky clear below 12,000 feet AGL
Present Weather: automated observation with no human augmentation;
there may or may not be significant weather present at this time
KOBE 160255Z AUTO 01008KT 10SM CLR 11/08 A3032 RMK AO2

Conditions at: KOBE observed 16 January 2018  02:35 UTC
Temperature: 11.0°C (52°F)
Dewpoint: 8.0°C (46°F) [RH = 82%]
Pressure (altimeter): 30.32 inches Hg (1026.8 mb)
Winds: from the N (10 degrees) at 8 MPH (7 knots; 3.6 m/s)
Visibility: 10 or more miles (16+ km)
Ceiling: at least 12,000 feet AGL
Clouds: sky clear below 12,000 feet AGL
Present Weather: automated observation with no human augmentation;
there may or may not be significant weather present at this time
KOBE 160235Z AUTO 01007KT 10SM CLR 11/08 A3032 RMK AO2

Conditions at: KOBE observed 16 January 2018  02:15 UTC
Temperature: 12.0°C (54°F)
Dewpoint: 8.0°C (46°F) [RH = 76%]
Pressure (altimeter): 30.32 inches Hg (1026.8 mb)
Winds: from the N (360 degrees) at 8 MPH (7 knots; 3.6 m/s)
Visibility: 10 or more miles (16+ km)
Ceiling: at least 12,000 feet AGL
Clouds: sky clear below 12,000 feet AGL
Present Weather: automated observation with no human augmentation;
there may or may not be significant weather present at this time
KOBE 160215Z AUTO 36007KT 10SM CLR 12/08 A3032 RMK AO2

Conditions at: KOBE observed 16 January 2018  01:55 UTC
Temperature: 12.0°C (54°F)
Dewpoint: 8.0°C (46°F) [RH = 76%]
Pressure (altimeter): 30.32 inches Hg (1026.8 mb)
Winds: from the N (10 degrees) at 10 MPH (9 knots; 4.7 m/s)
Visibility: 10 or more miles (16+ km)
Ceiling: at least 12,000 feet AGL
Clouds: scattered clouds at 7500 feet AGL
Present Weather: automated observation with no human augmentation;
there may or may not be significant weather present at this time
KOBE 160155Z AUTO 01009KT 10SM SCT075 12/08 A3032 RMK AO2

Conditions at: KOBE observed 16 January 2018  01:35 UTC
Temperature: 12.0°C (54°F)
Dewpoint: 8.0°C (46°F) [RH = 76%]
Pressure (altimeter): 30.31 inches Hg (1026.5 mb)
Winds: from the N (10 degrees) at 13 MPH (11 knots; 5.7 m/s)
gusting to 20 MPH (17 knots; 8.8 m/s)
Visibility: 10 or more miles (16+ km)
Ceiling: 7500 feet AGL
Clouds: broken clouds at 7500 feet AGL
Present Weather: automated observation with no human augmentation;
there may or may not be significant weather present at this time
KOBE 160135Z AUTO 01011G17KT 10SM BKN075 12/08 A3031 RMK AO2

Conditions at: KOBE observed 16 January 2018  01:15 UTC
Temperature: 13.0°C (55°F)
Dewpoint: 9.0°C (48°F) [RH = 77%]
Pressure (altimeter): 30.30 inches Hg (1026.2 mb)
Winds: from the N (10 degrees) at 9 MPH (8 knots; 4.2 m/s)
Visibility: 10 or more miles (16+ km)
Ceiling: 7500 feet AGL
Clouds: broken clouds at 7500 feet AGL
Present Weather: automated observation with no human augmentation;
there may or may not be significant weather present at this time
KOBE 160115Z AUTO 01008KT 10SM BKN075 13/09 A3030 RMK AO2

Conditions at: KOBE observed 16 January 2018  00:55 UTC
Temperature: 13.0°C (55°F)
Dewpoint: 9.0°C (48°F) [RH = 77%]
Pressure (altimeter): 30.30 inches Hg (1026.2 mb)
Winds: from the N (10 degrees) at 10 MPH (9 knots; 4.7 m/s)
Visibility: 10 or more miles (16+ km)
Ceiling: 7500 feet AGL
Clouds: broken clouds at 7500 feet AGL
Present Weather: automated observation with no human augmentation;
there may or may not be significant weather present at this time
KOBE 160055Z AUTO 01009KT 10SM BKN075 13/09 A3030 RMK AO2

Conditions at: KOBE observed 16 January 2018  00:35 UTC
Temperature: 14.0°C (57°F)
Dewpoint: 10.0°C (50°F) [RH = 77%]
Pressure (altimeter): 30.30 inches Hg (1026.2 mb)
Winds: from the N (10 degrees) at 13 MPH (11 knots; 5.7 m/s)
gusting to 20 MPH (17 knots; 8.8 m/s)
Visibility: 10 or more miles (16+ km)
Ceiling: at least 12,000 feet AGL
Clouds: scattered clouds at 6500 feet AGL
Present Weather: automated observation with no human augmentation;
there may or may not be significant weather present at this time
KOBE 160035Z AUTO 01011G17KT 10SM SCT065 14/10 A3030 RMK AO2

Conditions at: KOBE observed 16 January 2018  00:15 UTC
Temperature: 14.0°C (57°F)
Dewpoint: 10.0°C (50°F) [RH = 77%]
Pressure (altimeter): 30.29 inches Hg (1025.8 mb)
Winds: from the N (10 degrees) at 13 MPH (11 knots; 5.7 m/s)
gusting to 18 MPH (16 knots; 8.3 m/s)
Visibility: 10 or more miles (16+ km)
Ceiling: at least 12,000 feet AGL
Clouds: scattered clouds at 6500 feet AGL
Present Weather: automated observation with no human augmentation;
there may or may not be significant weather present at this time
KOBE 160015Z AUTO 01011G16KT 10SM SCT065 14/10 A3029 RMK AO2

Conditions at: KOBE observed 15 January 2018  23:55 UTC
Temperature: 15.0°C (59°F)
Dewpoint: 10.0°C (50°F) [RH = 72%]
Pressure (altimeter): 30.29 inches Hg (1025.8 mb)
Winds: from the N (10 degrees) at 10 MPH (9 knots; 4.7 m/s)
Visibility: 10 or more miles (16+ km)
Ceiling: 6500 feet AGL
Clouds: scattered clouds at 5500 feet AGL
broken clouds at 6500 feet AGL
Present Weather: automated observation with no human augmentation;
there may or may not be significant weather present at this time
KOBE 152355Z AUTO 01009KT 10SM SCT055 BKN065 15/10 A3029 RMK AO2

Conditions at: KOBE observed 15 January 2018  23:35 UTC
Temperature: 15.0°C (59°F)
Dewpoint: 10.0°C (50°F) [RH = 72%]
Pressure (altimeter): 30.29 inches Hg (1025.8 mb)
Winds: from the NNE (20 degrees) at 14 MPH (12 knots; 6.2 m/s)
gusting to 18 MPH (16 knots; 8.3 m/s)
Visibility: 10 or more miles (16+ km)
Ceiling: 6500 feet AGL
Clouds: scattered clouds at 3900 feet AGL
broken clouds at 6500 feet AGL
overcast cloud deck at 7000 feet AGL
Present Weather: automated observation with no human augmentation;
there may or may not be significant weather present at this time
KOBE 152335Z AUTO 02012G16KT 10SM SCT039 BKN065 OVC070 15/10 A3029 RMK AO2

Conditions at: KOBE observed 15 January 2018  23:15 UTC
Temperature: 15.0°C (59°F)
Dewpoint: 9.0°C (48°F) [RH = 67%]
Pressure (altimeter): 30.29 inches Hg (1025.8 mb)
Winds: from the N (10 degrees) at 9 MPH (8 knots; 4.2 m/s)
Visibility: 10 or more miles (16+ km)
Ceiling: 3700 feet AGL
Clouds: broken clouds at 3700 feet AGL
overcast cloud deck at 5000 feet AGL
Present Weather: automated observation with no human augmentation;
there may or may not be significant weather present at this time
KOBE 152315Z AUTO 01008KT 10SM BKN037 OVC050 15/09 A3029 RMK AO2

Conditions at: KOBE observed 15 January 2018  22:55 UTC
Temperature: 16.0°C (61°F)
Dewpoint: 9.0°C (48°F) [RH = 63%]
Pressure (altimeter): 30.28 inches Hg (1025.5 mb)
Winds: from the N (10 degrees) at 12 MPH (10 knots; 5.2 m/s)
gusting to 20 MPH (17 knots; 8.8 m/s)
Visibility: 10 or more miles (16+ km)
Ceiling: 3700 feet AGL
Clouds: broken clouds at 3700 feet AGL
overcast cloud deck at 5000 feet AGL
Present Weather: automated observation with no human augmentation;
there may or may not be significant weather present at this time
KOBE 152255Z AUTO 01010G17KT 10SM BKN037 OVC050 16/09 A3028 RMK AO2

Conditions at: KOBE observed 15 January 2018  22:35 UTC
Temperature: 16.0°C (61°F)
Dewpoint: 8.0°C (46°F) [RH = 59%]
Pressure (altimeter): 30.28 inches Hg (1025.5 mb)
Winds: from the NNE (20 degrees) at 15 MPH (13 knots; 6.8 m/s)
gusting to 20 MPH (17 knots; 8.8 m/s)
Visibility: 10 or more miles (16+ km)
Ceiling: 3900 feet AGL
Clouds: broken clouds at 3900 feet AGL
overcast cloud deck at 5000 feet AGL
Present Weather: automated observation with no human augmentation;
there may or may not be significant weather present at this time
KOBE 152235Z AUTO 02013G17KT 10SM BKN039 OVC050 16/08 A3028 RMK AO2